Time;durP1;ratioP1;P1;durP2;ratioP2;P2;SDS_P1;SDS_P2;PMS_P1;PMS_P2;Temp;Humidity;BMP_temperature;BMP_pressure;BME280_temperature;BME280_humidity;BME280_pressure;Samples;Min_cycle;Max_cycle;Signal;HPM_P1;HPM_P2
2021/03/03 00:02:24;;;;;;;63.83;30.15;;;;;;;;;;5069006;28;20191;-39
2021/03/03 00:05:05;;;;;;;62.40;30.10;;;;;;;;;;5069005;28;20556;-37
2021/03/03 00:07:38;;;;;;;58.58;28.63;;;;;;;;;;5065610;28;20052;-36
2021/03/03 00:10:07;;;;;;;59.00;29.37;;;;;;;;;;5068343;28;20489;-36
2021/03/03 00:12:36;;;;;;;58.22;28.38;;;;;;;;;;5067351;28;20294;-36
2021/03/03 00:15:06;;;;;;;57.53;28.60;;;;;;;;;;5067952;28;20369;-37
2021/03/03 00:17:42;;;;;;;58.95;29.38;;;;;;;;;;5064037;28;20525;-40
2021/03/03 00:20:14;;;;;;;58.60;30.63;;;;;;;;;;5067908;28;20120;-37
2021/03/03 00:22:46;;;;;;;56.03;27.67;;;;;;;;;;5065632;28;20041;-37
2021/03/03 00:25:20;;;;;;;61.87;31.03;;;;;;;;;;5067640;28;20039;-36
2021/03/03 00:27:57;;;;;;;63.70;29.85;;;;;;;;;;5068133;28;20480;-36
2021/03/03 00:30:23;;;;;;;62.17;29.02;;;;;;;;;;5067866;28;20476;-36
2021/03/03 00:32:55;;;;;;;74.20;33.10;;;;;;;;;;5069026;28;20098;-38
2021/03/03 00:35:27;;;;;;;61.00;30.05;;;;;;;;;;5063676;28;20040;-40
2021/03/03 00:37:58;;;;;;;58.47;29.67;;;;;;;;;;5067990;28;20048;-37
2021/03/03 00:40:28;;;;;;;62.60;31.30;;;;;;;;;;5065914;28;20055;-36
2021/03/03 00:42:57;;;;;;;58.10;28.02;;;;;;;;;;5066781;28;20387;-38
2021/03/03 00:45:28;;;;;;;63.00;31.05;;;;;;;;;;5049463;28;20051;-36
2021/03/03 00:48:06;;;;;;;62.97;29.92;;;;;;;;;;5068944;28;20032;-37
2021/03/03 00:50:37;;;;;;;66.03;29.63;;;;;;;;;;5067213;28;20044;-37
2021/03/03 00:53:13;;;;;;;61.75;29.65;;;;;;;;;;5068110;28;20165;-36
2021/03/03 00:55:48;;;;;;;66.65;31.60;;;;;;;;;;5049924;28;20113;-37
2021/03/03 00:58:21;;;;;;;64.97;30.50;;;;;;;;;;5048906;28;20048;-37
2021/03/03 01:00:47;;;;;;;64.45;30.63;;;;;;;;;;5047649;28;20102;-39
2021/03/03 01:03:19;;;;;;;62.00;29.58;;;;;;;;;;5067088;28;20490;-43
2021/03/03 01:05:48;;;;;;;63.28;31.17;;;;;;;;;;5040820;28;20036;-37
2021/03/03 01:08:24;;;;;;;69.30;31.83;;;;;;;;;;5045962;28;20451;-43
2021/03/03 01:10:51;;;;;;;66.72;31.52;;;;;;;;;;5068335;28;20777;-37
2021/03/03 01:13:23;;;;;;;65.57;31.90;;;;;;;;;;5049698;28;20029;-37
2021/03/03 01:15:55;;;;;;;54.75;27.73;;;;;;;;;;5063973;28;20475;-37
2021/03/03 01:18:23;;;;;;;64.32;30.23;;;;;;;;;;5067447;28;20250;-37
2021/03/03 01:20:55;;;;;;;69.25;30.10;;;;;;;;;;5065511;28;20045;-37
2021/03/03 01:23:22;;;;;;;74.53;31.73;;;;;;;;;;5067428;28;20085;-36
2021/03/03 01:25:51;;;;;;;70.88;32.28;;;;;;;;;;5049279;28;20048;-36
2021/03/03 01:28:20;;;;;;;65.63;30.55;;;;;;;;;;5048637;28;20409;-37
2021/03/03 01:30:47;;;;;;;57.35;29.27;;;;;;;;;;5066087;28;20476;-40
2021/03/03 01:33:25;;;;;;;71.80;31.15;;;;;;;;;;5070985;28;20122;-37
2021/03/03 01:35:56;;;;;;;76.75;30.23;;;;;;;;;;5069759;28;20494;-37
2021/03/03 01:38:28;;;;;;;72.88;31.48;;;;;;;;;;5066955;28;20044;-37
2021/03/03 01:40:59;;;;;;;70.38;33.38;;;;;;;;;;5070243;28;20480;-39
2021/03/03 01:43:31;;;;;;;69.00;32.20;;;;;;;;;;5070331;28;20435;-36
2021/03/03 01:45:58;;;;;;;65.82;30.80;;;;;;;;;;5072136;28;20098;-36
2021/03/03 01:48:24;;;;;;;70.70;31.27;;;;;;;;;;5072075;28;20060;-43
2021/03/03 01:50:56;;;;;;;56.85;28.50;;;;;;;;;;5067984;28;20029;-38
2021/03/03 01:53:31;;;;;;;70.47;31.98;;;;;;;;;;5069406;28;20045;-36
2021/03/03 01:56:05;;;;;;;76.82;32.97;;;;;;;;;;5069587;28;20036;-37
2021/03/03 01:58:37;;;;;;;60.13;29.95;;;;;;;;;;5071194;28;20388;-35
2021/03/03 02:01:08;;;;;;;75.43;30.80;;;;;;;;;;5069870;28;20045;-36
2021/03/03 02:03:39;;;;;;;75.78;30.88;;;;;;;;;;5070030;28;20044;-36
2021/03/03 02:06:33;;;;;;;72.82;33.05;;;;;;;;;;5070715;28;20040;-37
2021/03/03 02:09:10;;;;;;;71.68;31.30;;;;;;;;;;5069836;28;20040;-39
2021/03/03 02:11:43;;;;;;;62.65;31.20;;;;;;;;;;5051734;28;20041;-38
2021/03/03 02:14:17;;;;;;;66.13;30.02;;;;;;;;;;5053991;28;20071;-37
2021/03/03 02:16:53;;;;;;;75.97;33.65;;;;;;;;;;5054239;28;20468;-37
2021/03/03 02:19:25;;;;;;;61.47;29.85;;;;;;;;;;5070684;28;20498;-37
2021/03/03 02:21:57;;;;;;;53.55;26.80;;;;;;;;;;5069435;28;20472;-36
2021/03/03 02:24:30;;;;;;;67.07;29.05;;;;;;;;;;5052900;28;20115;-41
2021/03/03 02:27:00;;;;;;;64.32;29.63;;;;;;;;;;5030539;28;20040;-37
2021/03/03 02:29:30;;;;;;;65.57;30.80;;;;;;;;;;5068273;28;20411;-40
2021/03/03 02:31:59;;;;;;;70.80;32.58;;;;;;;;;;5054240;28;20132;-42
2021/03/03 02:34:31;;;;;;;69.47;31.08;;;;;;;;;;5052488;28;20052;-37
2021/03/03 02:37:02;;;;;;;68.10;29.40;;;;;;;;;;5051590;28;20041;-38
2021/03/03 02:39:33;;;;;;;76.55;29.30;;;;;;;;;;5048854;28;20064;-41
2021/03/03 02:42:04;;;;;;;70.18;30.02;;;;;;;;;;5052264;28;20506;-36
2021/03/03 02:44:40;;;;;;;73.88;32.65;;;;;;;;;;5045890;28;20133;-38
2021/03/03 02:47:18;;;;;;;78.20;34.40;;;;;;;;;;5054519;28;20049;-37
2021/03/03 02:49:48;;;;;;;56.75;27.15;;;;;;;;;;5052511;28;20040;-37
2021/03/03 02:52:22;;;;;;;60.38;28.30;;;;;;;;;;5070604;28;20047;-38
2021/03/03 02:55:01;;;;;;;74.78;32.55;;;;;;;;;;5067001;28;20475;-36
2021/03/03 02:57:37;;;;;;;68.13;30.88;;;;;;;;;;5053425;28;20066;-37
2021/03/03 03:00:07;;;;;;;72.25;32.05;;;;;;;;;;5068828;28;20095;-36
2021/03/03 03:02:38;;;;;;;62.03;30.27;;;;;;;;;;5069897;28;20051;-40
2021/03/03 03:05:12;;;;;;;72.40;31.45;;;;;;;;;;5050738;28;20112;-39
2021/03/03 03:07:52;;;;;;;60.28;28.42;;;;;;;;;;5051472;28;20076;-40
2021/03/03 03:10:26;;;;;;;57.22;27.45;;;;;;;;;;5057265;28;20778;-37
2021/03/03 03:13:01;;;;;;;62.00;28.65;;;;;;;;;;5033652;28;20094;-36
2021/03/03 03:15:32;;;;;;;60.05;26.42;;;;;;;;;;5051135;28;20045;-44
2021/03/03 03:18:07;;;;;;;53.20;25.80;;;;;;;;;;5028478;28;20040;-39
2021/03/03 03:20:38;;;;;;;65.70;29.50;;;;;;;;;;5068304;28;20646;-38
2021/03/03 03:23:04;;;;;;;69.57;31.15;;;;;;;;;;5050732;28;20029;-38
2021/03/03 03:25:37;;;;;;;56.05;28.38;;;;;;;;;;5050235;28;20095;-37
2021/03/03 03:28:06;;;;;;;53.15;26.42;;;;;;;;;;5049990;28;20072;-38
2021/03/03 03:30:42;;;;;;;48.67;25.25;;;;;;;;;;5052581;28;20033;-38
2021/03/03 03:33:19;;;;;;;53.90;26.90;;;;;;;;;;5069504;28;20494;-37
2021/03/03 03:35:51;;;;;;;57.40;26.33;;;;;;;;;;5069560;28;20479;-35
2021/03/03 03:38:25;;;;;;;50.92;27.92;;;;;;;;;;5067991;28;20032;-36
2021/03/03 03:40:55;;;;;;;49.83;26.20;;;;;;;;;;5051179;28;20510;-36
2021/03/03 03:43:27;;;;;;;43.85;23.83;;;;;;;;;;5069204;28;20077;-36
2021/03/03 03:46:01;;;;;;;51.72;28.25;;;;;;;;;;5050457;28;20365;-35
2021/03/03 03:48:35;;;;;;;48.50;27.33;;;;;;;;;;5052901;28;20036;-44
2021/03/03 03:51:13;;;;;;;51.45;26.88;;;;;;;;;;5066158;28;20043;-36
2021/03/03 03:53:44;;;;;;;50.00;25.83;;;;;;;;;;5067205;28;20036;-35
2021/03/03 03:56:13;;;;;;;46.40;23.90;;;;;;;;;;5049036;28;20045;-38
2021/03/03 03:58:43;;;;;;;46.63;24.58;;;;;;;;;;5051777;28;20187;-36
2021/03/03 04:01:12;;;;;;;45.08;24.40;;;;;;;;;;5067000;28;20040;-36
2021/03/03 04:03:38;;;;;;;43.03;24.60;;;;;;;;;;5047109;28;20161;-42
2021/03/03 04:06:10;;;;;;;51.92;24.73;;;;;;;;;;5067913;28;20053;-36
2021/03/03 04:08:44;;;;;;;49.72;25.02;;;;;;;;;;5067643;28;20118;-36
2021/03/03 04:11:23;;;;;;;39.72;23.33;;;;;;;;;;5068960;28;20484;-36
2021/03/03 04:13:54;;;;;;;51.15;25.40;;;;;;;;;;5066742;28;20395;-36
2021/03/03 04:16:28;;;;;;;49.38;25.30;;;;;;;;;;5049719;28;20054;-35
2021/03/03 04:18:57;;;;;;;51.20;27.00;;;;;;;;;;5069291;28;20115;-35
2021/03/03 04:21:26;;;;;;;40.90;23.65;;;;;;;;;;5066888;28;20045;-38
2021/03/03 04:23:55;;;;;;;47.53;25.45;;;;;;;;;;5067850;28;20045;-35
2021/03/03 04:26:22;;;;;;;43.33;24.35;;;;;;;;;;5070576;28;20419;-35
2021/03/03 04:28:53;;;;;;;48.53;23.90;;;;;;;;;;5051606;28;20422;-35
2021/03/03 04:31:35;;;;;;;42.63;23.25;;;;;;;;;;5066710;28;20727;-36
2021/03/03 04:34:04;;;;;;;46.17;22.70;;;;;;;;;;5068053;28;20369;-36
2021/03/03 04:36:31;;;;;;;42.80;23.83;;;;;;;;;;5066136;28;20056;-37
2021/03/03 04:39:00;;;;;;;42.10;23.02;;;;;;;;;;5041374;28;20036;-35
2021/03/03 04:41:31;;;;;;;47.35;24.45;;;;;;;;;;5067202;28;20047;-35
2021/03/03 04:44:02;;;;;;;39.95;21.70;;;;;;;;;;5066556;28;20047;-35
2021/03/03 04:46:28;;;;;;;41.55;22.73;;;;;;;;;;5067726;28;20081;-35
2021/03/03 04:48:57;;;;;;;48.47;24.55;;;;;;;;;;5069284;28;20053;-36
2021/03/03 04:51:27;;;;;;;43.63;22.38;;;;;;;;;;5049524;28;20055;-39
2021/03/03 04:53:59;;;;;;;46.15;24.33;;;;;;;;;;5065949;28;20114;-35
2021/03/03 04:56:28;;;;;;;50.60;25.38;;;;;;;;;;5049344;28;20110;-36
2021/03/03 04:59:06;;;;;;;41.38;24.10;;;;;;;;;;5048659;28;20056;-35
2021/03/03 05:01:33;;;;;;;44.53;24.63;;;;;;;;;;5065702;28;20041;-35
2021/03/03 05:03:59;;;;;;;44.22;24.48;;;;;;;;;;5064665;28;20052;-36
2021/03/03 05:06:30;;;;;;;44.78;24.95;;;;;;;;;;5066544;28;20044;-39
2021/03/03 05:09:14;;;;;;;45.38;23.92;;;;;;;;;;5067627;28;20056;-38
2021/03/03 05:11:44;;;;;;;45.35;24.58;;;;;;;;;;5067544;28;20060;-37
2021/03/03 05:14:13;;;;;;;44.08;24.42;;;;;;;;;;5069299;28;20459;-35
2021/03/03 05:16:46;;;;;;;47.05;23.85;;;;;;;;;;5067320;28;20032;-38
2021/03/03 05:19:12;;;;;;;42.88;22.73;;;;;;;;;;5066503;28;20190;-37
2021/03/03 05:21:46;;;;;;;;;;;;;;;;;;5044446;28;20119;-36
2021/03/03 05:24:18;;;;;;;44.15;23.80;;;;;;;;;;5046484;28;19998;-38
2021/03/03 05:26:57;;;;;;;46.17;25.17;;;;;;;;;;5066427;28;20122;-37
2021/03/03 05:29:36;;;;;;;51.63;27.02;;;;;;;;;;5050129;28;20109;-39
2021/03/03 05:32:06;;;;;;;44.42;26.00;;;;;;;;;;5068542;28;20050;-36
2021/03/03 05:34:35;;;;;;;51.20;27.92;;;;;;;;;;5068873;28;20462;-36
2021/03/03 05:37:07;;;;;;;47.67;27.17;;;;;;;;;;5067690;28;20084;-38
2021/03/03 05:39:36;;;;;;;51.08;26.50;;;;;;;;;;5050213;28;20032;-40
2021/03/03 05:42:13;;;;;;;46.88;25.55;;;;;;;;;;5069102;28;20051;-38
2021/03/03 05:44:40;;;;;;;;;;;;;;;;;;5064330;28;20051;-36
2021/03/03 05:47:17;;;;;;;47.50;25.42;;;;;;;;;;5068028;28;20329;-35
2021/03/03 05:49:48;;;;;;;56.93;29.87;;;;;;;;;;5038401;28;20045;-36
2021/03/03 05:52:15;;;;;;;60.33;29.83;;;;;;;;;;5026948;28;20043;-36
2021/03/03 05:54:49;;;;;;;54.45;29.95;;;;;;;;;;5053799;28;20049;-35
2021/03/03 05:57:17;;;;;;;72.60;35.20;;;;;;;;;;5054617;28;20052;-39
2021/03/03 05:59:50;;;;;;;57.63;30.70;;;;;;;;;;5070523;28;20045;-37
2021/03/03 06:02:29;;;;;;;66.00;31.58;;;;;;;;;;5068208;28;20055;-37
2021/03/03 06:04:55;;;;;;;60.55;29.75;;;;;;;;;;5064763;28;20064;-36
2021/03/03 06:07:25;;;;;;;52.38;27.88;;;;;;;;;;5071075;28;20487;-36
2021/03/03 06:10:03;;;;;;;55.10;28.27;;;;;;;;;;5070963;28;20045;-37
2021/03/03 06:12:35;;;;;;;53.60;29.90;;;;;;;;;;5061688;28;20111;-37
2021/03/03 06:15:07;;;;;;;53.15;27.33;;;;;;;;;;5050754;28;20144;-38
2021/03/03 06:17:33;;;;;;;62.80;30.95;;;;;;;;;;5067111;28;20064;-38
2021/03/03 06:20:18;;;;;;;49.42;28.55;;;;;;;;;;5056141;28;20041;-36
2021/03/03 06:22:54;;;;;;;62.10;31.20;;;;;;;;;;5074346;28;20056;-36
2021/03/03 06:25:31;;;;;;;57.25;30.02;;;;;;;;;;5073998;28;20044;-36
2021/03/03 06:27:58;;;;;;;62.33;32.22;;;;;;;;;;5074550;28;20051;-36
2021/03/03 06:30:33;;;;;;;;;;;;;;;;;;5042103;28;20480;-42
2021/03/03 06:33:11;;;;;;;62.22;31.42;;;;;;;;;;5073826;28;19977;-37
2021/03/03 06:35:44;;;;;;;61.25;31.48;;;;;;;;;;5056964;28;20132;-36
2021/03/03 06:38:14;;;;;;;56.67;30.38;;;;;;;;;;5056887;28;20468;-38
2021/03/03 06:41:00;;;;;;;60.95;32.05;;;;;;;;;;5056931;28;20049;-36
2021/03/03 06:43:27;;;;;;;60.47;32.75;;;;;;;;;;5074216;28;20052;-39
2021/03/03 06:45:57;;;;;;;55.80;29.55;;;;;;;;;;5073364;28;20149;-37
2021/03/03 06:48:41;;;;;;;62.60;31.92;;;;;;;;;;5074228;28;20036;-36
2021/03/03 06:51:28;;;;;;;57.03;30.63;;;;;;;;;;5039126;28;20266;-37
2021/03/03 06:54:02;;;;;;;56.13;30.48;;;;;;;;;;5072519;28;20040;-36
2021/03/03 06:56:38;;;;;;;51.42;30.08;;;;;;;;;;5073237;28;20408;-37
2021/03/03 06:59:14;;;;;;;54.95;31.08;;;;;;;;;;5055120;28;20462;-37
2021/03/03 07:01:44;;;;;;;56.28;29.25;;;;;;;;;;5071988;28;20052;-37
2021/03/03 07:04:27;;;;;;;54.63;29.38;;;;;;;;;;5046007;28;20408;-37
2021/03/03 07:07:00;;;;;;;53.55;31.02;;;;;;;;;;5053819;28;20048;-37
2021/03/03 07:09:48;;;;;;;53.47;30.65;;;;;;;;;;5028218;28;20040;-36
2021/03/03 07:12:23;;;;;;;55.55;30.10;;;;;;;;;;5072005;28;20202;-36
2021/03/03 07:14:57;;;;;;;49.75;29.20;;;;;;;;;;5072967;28;20552;-40
2021/03/03 07:17:37;;;;;;;58.95;30.98;;;;;;;;;;5056083;28;20071;-37
2021/03/03 07:20:15;;;;;;;49.08;28.80;;;;;;;;;;5061583;28;20048;-37
2021/03/03 07:22:47;;;;;;;53.67;29.98;;;;;;;;;;5064416;28;20052;-38
2021/03/03 07:25:18;;;;;;;55.28;30.25;;;;;;;;;;5058602;28;20130;-43
2021/03/03 07:27:48;;;;;;;;;;;;;;;;;;5056668;28;20515;-41
2021/03/03 07:30:22;;;;;;;51.75;28.45;;;;;;;;;;5053631;28;19920;-38
2021/03/03 07:32:51;;;;;;;57.08;31.80;;;;;;;;;;5072968;28;20076;-36
2021/03/03 07:35:27;;;;;;;53.05;30.48;;;;;;;;;;5072537;28;20048;-36
2021/03/03 07:37:59;;;;;;;58.47;32.67;;;;;;;;;;5060385;28;20044;-38
2021/03/03 07:40:29;;;;;;;55.03;30.85;;;;;;;;;;5055581;28;20036;-37
2021/03/03 07:42:56;;;;;;;54.08;31.73;;;;;;;;;;5054491;28;20052;-37
2021/03/03 07:45:23;;;;;;;53.47;31.20;;;;;;;;;;5069825;28;20480;-37
2021/03/03 07:47:54;;;;;;;54.10;31.75;;;;;;;;;;5072918;28;20067;-37
2021/03/03 07:50:21;;;;;;;54.40;30.00;;;;;;;;;;5054915;28;20079;-40
2021/03/03 07:52:59;;;;;;;56.15;30.00;;;;;;;;;;5055444;28;20182;-38
2021/03/03 07:55:26;;;;;;;57.63;29.95;;;;;;;;;;5051868;28;20476;-37
2021/03/03 07:57:59;;;;;;;57.58;32.63;;;;;;;;;;5055387;28;20381;-41
2021/03/03 08:00:30;;;;;;;54.13;30.77;;;;;;;;;;5054821;28;20063;-37
2021/03/03 08:02:59;;;;;;;50.45;29.40;;;;;;;;;;5054666;28;20128;-40
2021/03/03 08:05:38;;;;;;;52.28;31.08;;;;;;;;;;5070445;28;20072;-36
2021/03/03 08:08:33;;;;;;;56.97;31.48;;;;;;;;;;5059042;28;20071;-37
2021/03/03 08:11:05;;;;;;;54.92;31.55;;;;;;;;;;5052234;28;20045;-37
2021/03/03 08:13:46;;;;;;;58.83;32.80;;;;;;;;;;5052643;28;20041;-37
2021/03/03 08:16:26;;;;;;;56.63;32.08;;;;;;;;;;5070484;28;20044;-37
2021/03/03 08:18:58;;;;;;;53.67;29.98;;;;;;;;;;5072376;28;20066;-48
2021/03/03 08:21:30;;;;;;;;;;;;;;;;;;5072443;28;20041;-37
2021/03/03 08:24:05;;;;;;;54.35;30.10;;;;;;;;;;5072235;28;19924;-38
2021/03/03 08:26:43;;;;;;;55.25;28.67;;;;;;;;;;5070483;28;20415;-36
2021/03/03 08:29:52;;;;;;;53.67;30.70;;;;;;;;;;5072031;28;20047;-38
2021/03/03 08:32:25;;;;;;;55.95;32.15;;;;;;;;;;5071808;28;20045;-37
2021/03/03 08:34:57;;;;;;;59.45;33.25;;;;;;;;;;5053721;28;20059;-41
2021/03/03 08:40:32;;;;;;;55.97;32.05;;;;;;;;;;5058799;28;20419;-37
2021/03/03 08:43:08;;;;;;;60.50;33.08;;;;;;;;;;5072071;28;20163;-49
2021/03/03 08:45:36;;;;;;;57.05;31.08;;;;;;;;;;5053346;28;20053;-37
2021/03/03 08:48:07;;;;;;;56.25;33.33;;;;;;;;;;5035002;28;20517;-38
2021/03/03 08:50:43;;;;;;;63.83;35.78;;;;;;;;;;5035113;28;20135;-37
2021/03/03 08:53:28;;;;;;;57.20;33.67;;;;;;;;;;5055954;28;20404;-37
2021/03/03 08:55:58;;;;;;;56.58;34.45;;;;;;;;;;5071985;28;20369;-37
2021/03/03 08:58:36;;;;;;;59.78;35.10;;;;;;;;;;5071793;28;20071;-37
2021/03/03 09:01:04;;;;;;;53.33;31.55;;;;;;;;;;5071107;28;20060;-38
2021/03/03 09:03:37;;;;;;;54.15;33.47;;;;;;;;;;5054602;28;20095;-37
2021/03/03 09:06:04;;;;;;;52.72;29.27;;;;;;;;;;5071408;28;20072;-37
2021/03/03 09:08:36;;;;;;;58.42;34.67;;;;;;;;;;5054689;28;20529;-38
2021/03/03 09:11:20;;;;;;;60.28;35.72;;;;;;;;;;5070749;28;20056;-37
2021/03/03 09:14:02;;;;;;;54.15;33.25;;;;;;;;;;5071332;28;20078;-38
2021/03/03 09:16:33;;;;;;;54.70;34.22;;;;;;;;;;5054739;28;20044;-37
2021/03/03 09:19:14;;;;;;;60.03;35.33;;;;;;;;;;5051395;28;20102;-37
2021/03/03 09:21:44;;;;;;;55.33;33.33;;;;;;;;;;5047725;28;20053;-39
2021/03/03 09:24:17;;;;;;;54.85;33.63;;;;;;;;;;5070771;28;20136;-37
2021/03/03 09:26:49;;;;;;;60.30;33.08;;;;;;;;;;5070848;28;20052;-37
2021/03/03 09:29:31;;;;;;;57.03;36.22;;;;;;;;;;5070754;28;20123;-37
2021/03/03 09:32:20;;;;;;;61.00;35.17;;;;;;;;;;5047913;28;20067;-38
2021/03/03 09:35:01;;;;;;;59.25;36.47;;;;;;;;;;5058356;28;20090;-41
2021/03/03 09:37:28;;;;;;;52.92;33.83;;;;;;;;;;5053072;28;20037;-38
2021/03/03 09:40:03;;;;;;;55.78;35.03;;;;;;;;;;5028754;28;20075;-37
2021/03/03 09:42:39;;;;;;;54.47;32.88;;;;;;;;;;5041041;28;20048;-37
2021/03/03 09:45:29;;;;;;;55.05;33.65;;;;;;;;;;5050577;28;20073;-37
2021/03/03 09:48:02;;;;;;;56.25;34.80;;;;;;;;;;5051448;28;20052;-37
2021/03/03 09:50:30;;;;;;;54.88;34.90;;;;;;;;;;5057549;28;20480;-38
2021/03/03 09:53:05;;;;;;;58.05;35.78;;;;;;;;;;5053960;28;20052;-38
2021/03/03 09:55:43;;;;;;;55.17;34.03;;;;;;;;;;5075314;28;20040;-38
2021/03/03 09:58:11;;;;;;;57.63;34.72;;;;;;;;;;5074870;28;20044;-37
2021/03/03 10:00:51;;;;;;;54.65;31.58;;;;;;;;;;5044051;28;20500;-37
2021/03/03 10:03:35;;;;;;;56.45;33.92;;;;;;;;;;5055079;28;20080;-38
2021/03/03 10:06:06;;;;;;;64.57;36.95;;;;;;;;;;5042670;28;20059;-39
2021/03/03 10:08:32;;;;;;;60.10;37.08;;;;;;;;;;5057382;28;20075;-37
2021/03/03 10:11:14;;;;;;;57.70;34.30;;;;;;;;;;5048412;28;20037;-44
2021/03/03 10:13:49;;;;;;;61.80;36.67;;;;;;;;;;5055494;28;20067;-37
2021/03/03 10:16:20;;;;;;;62.85;38.30;;;;;;;;;;5054496;28;20049;-38
2021/03/03 10:19:02;;;;;;;57.95;34.55;;;;;;;;;;5039360;28;20063;-37
2021/03/03 10:21:31;;;;;;;59.38;36.17;;;;;;;;;;5074169;28;20048;-37
2021/03/03 10:24:02;;;;;;;58.17;35.92;;;;;;;;;;5056430;28;20125;-37
2021/03/03 10:26:43;;;;;;;57.90;36.78;;;;;;;;;;5056984;28;20521;-37
2021/03/03 10:29:18;;;;;;;60.55;38.22;;;;;;;;;;5074338;28;20048;-38
2021/03/03 10:31:51;;;;;;;58.95;37.92;;;;;;;;;;5055104;28;20492;-37
2021/03/03 10:34:22;;;;;;;59.20;38.13;;;;;;;;;;5056835;28;20089;-37
2021/03/03 10:36:49;;;;;;;64.40;40.85;;;;;;;;;;5056651;28;20048;-40
2021/03/03 10:39:26;;;;;;;69.57;39.83;;;;;;;;;;5065569;28;20045;-37
2021/03/03 10:42:05;;;;;;;69.50;37.58;;;;;;;;;;5037852;28;20044;-37
2021/03/03 10:44:38;;;;;;;70.97;40.03;;;;;;;;;;5058780;28;20547;-37
2021/03/03 10:47:09;;;;;;;64.22;41.90;;;;;;;;;;5053780;28;20060;-44
2021/03/03 10:49:40;;;;;;;65.50;41.22;;;;;;;;;;5036678;28;20036;-38
2021/03/03 10:52:21;;;;;;;71.30;43.30;;;;;;;;;;5068057;28;20052;-39
2021/03/03 10:54:52;;;;;;;61.85;35.97;;;;;;;;;;5072716;28;20039;-39
2021/03/03 10:57:31;;;;;;;56.88;35.83;;;;;;;;;;5072770;28;20483;-38
2021/03/03 11:00:05;;;;;;;47.40;29.45;;;;;;;;;;5055798;28;20064;-38
2021/03/03 11:02:37;;;;;;;56.28;34.42;;;;;;;;;;5070528;28;20794;-42
2021/03/03 11:05:07;;;;;;;52.10;31.63;;;;;;;;;;5059602;28;20041;-39
2021/03/03 11:07:47;;;;;;;52.40;31.27;;;;;;;;;;5070285;28;20051;-38
2021/03/03 11:10:16;;;;;;;47.97;29.77;;;;;;;;;;5065923;28;20496;-38
2021/03/03 11:12:42;;;;;;;46.92;28.70;;;;;;;;;;5046456;28;20105;-38
2021/03/03 11:15:12;;;;;;;45.05;29.52;;;;;;;;;;5066823;28;20055;-38
2021/03/03 11:17:42;;;;;;;45.92;29.00;;;;;;;;;;5072159;28;20068;-43
2021/03/03 11:20:12;;;;;;;46.58;29.50;;;;;;;;;;5039331;28;20052;-38
2021/03/03 11:22:56;;;;;;;45.20;28.63;;;;;;;;;;5073573;28;20056;-40
2021/03/03 11:25:25;;;;;;;40.78;26.42;;;;;;;;;;5053614;28;20094;-40
2021/03/03 11:27:58;;;;;;;41.08;27.35;;;;;;;;;;5052322;28;21527;-38
2021/03/03 11:30:28;;;;;;;36.13;25.15;;;;;;;;;;5065579;28;20476;-43
2021/03/03 11:33:09;;;;;;;34.80;23.02;;;;;;;;;;5068707;28;20109;-38
2021/03/03 11:35:38;;;;;;;31.73;21.75;;;;;;;;;;5064197;28;20063;-37
2021/03/03 11:38:06;;;;;;;31.27;21.08;;;;;;;;;;5052531;28;20040;-37
2021/03/03 11:40:38;;;;;;;34.05;23.20;;;;;;;;;;5067929;28;20041;-38
2021/03/03 11:43:10;;;;;;;32.08;22.02;;;;;;;;;;5066781;28;20135;-38
2021/03/03 11:45:54;;;;;;;33.85;24.80;;;;;;;;;;5067138;28;20076;-37
2021/03/03 11:48:28;;;;;;;34.42;23.50;;;;;;;;;;5066441;28;20067;-38
2021/03/03 11:51:00;;;;;;;30.40;20.45;;;;;;;;;;5052764;28;20057;-43
2021/03/03 11:53:29;;;;;;;34.63;22.30;;;;;;;;;;5068086;28;20137;-37
2021/03/03 11:56:06;;;;;;;33.80;23.05;;;;;;;;;;5063229;28;20040;-40
2021/03/03 11:58:43;;;;;;;31.95;21.98;;;;;;;;;;5046557;28;20040;-42
2021/03/03 12:01:13;;;;;;;34.80;24.35;;;;;;;;;;5039806;28;20063;-41
2021/03/03 12:03:49;;;;;;;32.72;22.38;;;;;;;;;;5063829;28;20160;-37
2021/03/03 12:06:21;;;;;;;37.05;25.10;;;;;;;;;;5056442;28;20032;-48
2021/03/03 12:08:51;;;;;;;37.75;23.98;;;;;;;;;;5047441;28;20053;-41
2021/03/03 12:11:27;;;;;;;38.38;25.33;;;;;;;;;;5060928;28;20041;-37
2021/03/03 12:13:54;;;;;;;;;;;;;;;;;;5065601;28;20045;-39
2021/03/03 12:16:34;;;;;;;39.33;27.00;;;;;;;;;;5057487;28;19920;-38
2021/03/03 12:19:03;;;;;;;;;;;;;;;;;;5064059;28;20106;-38
2021/03/03 12:21:30;;;;;;;40.47;27.75;;;;;;;;;;5057707;28;19932;-39
2021/03/03 12:23:57;;;;;;;41.13;28.63;;;;;;;;;;5065977;28;20048;-37
2021/03/03 12:26:29;;;;;;;40.33;25.92;;;;;;;;;;5058570;28;20403;-39
2021/03/03 12:29:01;;;;;;;38.30;24.73;;;;;;;;;;5053178;28;20079;-37
2021/03/03 12:31:33;;;;;;;41.83;27.48;;;;;;;;;;5044558;28;20040;-38
2021/03/03 12:34:02;;;;;;;38.35;26.83;;;;;;;;;;5060961;28;20040;-36
2021/03/03 12:36:29;;;;;;;36.72;25.02;;;;;;;;;;5062171;28;20043;-41
2021/03/03 12:39:02;;;;;;;37.75;23.45;;;;;;;;;;5062916;28;20048;-38
2021/03/03 12:41:28;;;;;;;;;;;;;;;;;;5070562;28;20049;-38
2021/03/03 12:43:55;;;;;;;36.50;22.45;;;;;;;;;;5070461;28;19924;-38
2021/03/03 12:46:23;;;;;;;37.03;23.98;;;;;;;;;;5048571;28;20075;-40
2021/03/03 12:48:53;;;;;;;36.15;23.85;;;;;;;;;;5069110;28;20178;-41
2021/03/03 12:51:29;;;;;;;38.25;25.38;;;;;;;;;;5069371;28;20036;-38
2021/03/03 12:54:03;;;;;;;38.33;25.20;;;;;;;;;;5062223;28;20048;-38
2021/03/03 12:56:29;;;;;;;36.35;23.25;;;;;;;;;;5069430;28;20044;-39
2021/03/03 12:59:04;;;;;;;32.88;20.88;;;;;;;;;;5061525;28;20199;-38
2021/03/03 13:01:31;;;;;;;37.58;24.98;;;;;;;;;;5051761;28;20045;-38
2021/03/03 13:04:12;;;;;;;33.85;23.17;;;;;;;;;;5046613;28;20041;-37
2021/03/03 13:06:39;;;;;;;37.22;24.40;;;;;;;;;;5050947;28;20045;-38
2021/03/03 13:09:06;;;;;;;36.08;24.88;;;;;;;;;;5049805;28;20463;-37
2021/03/03 13:11:33;;;;;;;35.03;24.92;;;;;;;;;;5049901;28;20687;-37
2021/03/03 13:14:05;;;;;;;35.55;23.45;;;;;;;;;;5047317;28;20064;-39
2021/03/03 13:16:31;;;;;;;32.22;19.90;;;;;;;;;;5033467;28;20053;-38
2021/03/03 13:19:04;;;;;;;33.83;21.98;;;;;;;;;;5050265;28;20049;-38
2021/03/03 13:21:36;;;;;;;37.35;23.88;;;;;;;;;;5017218;28;20049;-39
2021/03/03 13:24:09;;;;;;;36.00;22.80;;;;;;;;;;5049014;28;20071;-36
2021/03/03 13:26:38;;;;;;;35.35;22.80;;;;;;;;;;5052745;28;20060;-36
2021/03/03 13:29:11;;;;;;;34.20;22.73;;;;;;;;;;5052457;28;20049;-38
2021/03/03 13:31:44;;;;;;;33.80;19.92;;;;;;;;;;5054055;28;20041;-37
2021/03/03 13:34:22;;;;;;;36.72;22.90;;;;;;;;;;5050730;28;20111;-37
2021/03/03 13:36:51;;;;;;;35.95;21.90;;;;;;;;;;5052542;28;20103;-39
2021/03/03 13:39:25;;;;;;;34.83;23.45;;;;;;;;;;5052818;28;20725;-38
2021/03/03 13:41:54;;;;;;;35.05;22.15;;;;;;;;;;5052390;28;20053;-40
2021/03/03 13:44:26;;;;;;;33.92;20.00;;;;;;;;;;5053385;28;20033;-37
2021/03/03 13:46:57;;;;;;;41.83;27.23;;;;;;;;;;5055357;28;20048;-38
2021/03/03 13:49:24;;;;;;;35.83;21.60;;;;;;;;;;5056413;28;20052;-37
2021/03/03 13:51:59;;;;;;;36.45;22.85;;;;;;;;;;5047688;28;20044;-37
2021/03/03 13:54:27;;;;;;;36.42;23.75;;;;;;;;;;5053623;28;20514;-37
2021/03/03 13:56:59;;;;;;;35.63;22.33;;;;;;;;;;5053342;28;20045;-37
2021/03/03 13:59:40;;;;;;;31.65;20.10;;;;;;;;;;5056765;28;20119;-36
2021/03/03 14:02:08;;;;;;;39.95;25.08;;;;;;;;;;5073028;28;20042;-36
2021/03/03 14:04:35;;;;;;;36.80;23.98;;;;;;;;;;5050738;28;20063;-36
2021/03/03 14:07:05;;;;;;;37.85;23.60;;;;;;;;;;5063136;28;20145;-35
2021/03/03 14:09:43;;;;;;;37.40;24.85;;;;;;;;;;5068557;28;20514;-37
2021/03/03 14:12:13;;;;;;;39.45;25.58;;;;;;;;;;5028176;28;20487;-36
2021/03/03 14:14:45;;;;;;;38.53;24.42;;;;;;;;;;5061851;28;20110;-36
2021/03/03 14:17:12;;;;;;;40.10;26.23;;;;;;;;;;5064238;28;20136;-36
2021/03/03 14:19:43;;;;;;;40.92;26.00;;;;;;;;;;5045255;28;20724;-37
2021/03/03 14:22:16;;;;;;;40.58;26.08;;;;;;;;;;5073669;28;20048;-37
2021/03/03 14:24:44;;;;;;;39.15;23.00;;;;;;;;;;5056473;28;20044;-36
2021/03/03 14:27:20;;;;;;;38.53;21.50;;;;;;;;;;5072813;28;20041;-36
2021/03/03 14:29:46;;;;;;;43.25;25.10;;;;;;;;;;5071806;28;20072;-37
2021/03/03 14:32:15;;;;;;;45.00;26.25;;;;;;;;;;5074025;28;20134;-37
2021/03/03 14:34:44;;;;;;;45.55;28.10;;;;;;;;;;5060699;28;20420;-37
2021/03/03 14:37:18;;;;;;;47.97;28.65;;;;;;;;;;5073942;28;20510;-36
2021/03/03 14:39:50;;;;;;;50.55;29.92;;;;;;;;;;5053878;28;20082;-37
2021/03/03 14:42:22;;;;;;;48.30;29.58;;;;;;;;;;5074497;28;20048;-38
2021/03/03 14:44:48;;;;;;;49.60;28.52;;;;;;;;;;5073854;28;20086;-37
2021/03/03 14:47:15;;;;;;;50.45;30.45;;;;;;;;;;5071664;28;20067;-36
2021/03/03 14:49:41;;;;;;;47.13;29.02;;;;;;;;;;5072874;28;20499;-37
2021/03/03 14:52:12;;;;;;;51.20;29.33;;;;;;;;;;5074005;28;20036;-37
2021/03/03 14:54:43;;;;;;;49.47;28.55;;;;;;;;;;5067433;28;20038;-40
2021/03/03 14:57:12;;;;;;;52.38;29.83;;;;;;;;;;5065235;28;20056;-37